sensor_id;sensor_type;location;lat;lon;timestamp;P1;durP1;ratioP1;P2;durP2;ratioP2
46607;SDS011;32330;51.936;7.184;2023-09-19T03:48:34;9.63;;;3.17;;
46607;SDS011;32330;51.936;7.184;2023-09-19T03:51:02;9.80;;;2.17;;
46607;SDS011;32330;51.936;7.184;2023-09-19T03:53:30;9.63;;;2.40;;
46607;SDS011;32330;51.936;7.184;2023-09-19T03:55:56;12.55;;;2.58;;
46607;SDS011;32330;51.936;7.184;2023-09-19T03:58:25;18.48;;;2.67;;
46607;SDS011;32330;51.936;7.184;2023-09-19T04:00:54;10.20;;;2.80;;
46607;SDS011;32330;51.936;7.184;2023-09-19T04:03:21;11.65;;;2.50;;
46607;SDS011;32330;51.936;7.184;2023-09-19T04:05:50;12.02;;;3.25;;
46607;SDS011;32330;51.936;7.184;2023-09-19T04:08:17;13.48;;;3.38;;
46607;SDS011;32330;51.936;7.184;2023-09-19T04:10:44;9.20;;;2.63;;
46607;SDS011;32330;51.936;7.184;2023-09-19T04:13:11;9.38;;;2.78;;
46607;SDS011;32330;51.936;7.184;2023-09-19T04:15:40;10.40;;;2.80;;
46607;SDS011;32330;51.936;7.184;2023-09-19T04:18:07;12.73;;;3.15;;
46607;SDS011;32330;51.936;7.184;2023-09-19T04:20:34;7.20;;;2.33;;
46607;SDS011;32330;51.936;7.184;2023-09-19T04:23:03;6.22;;;2.22;;
46607;SDS011;32330;51.936;7.184;2023-09-19T04:25:31;11.10;;;2.63;;
46607;SDS011;32330;51.936;7.184;2023-09-19T04:27:58;8.88;;;2.33;;
46607;SDS011;32330;51.936;7.184;2023-09-19T04:30:25;9.80;;;2.40;;
46607;SDS011;32330;51.936;7.184;2023-09-19T04:32:52;10.52;;;2.50;;
46607;SDS011;32330;51.936;7.184;2023-09-19T04:35:19;9.98;;;2.28;;
46607;SDS011;32330;51.936;7.184;2023-09-19T04:37:46;8.57;;;2.50;;
46607;SDS011;32330;51.936;7.184;2023-09-19T04:40:14;9.27;;;2.25;;
46607;SDS011;32330;51.936;7.184;2023-09-19T04:42:44;12.43;;;2.45;;
46607;SDS011;32330;51.936;7.184;2023-09-19T04:45:14;7.32;;;1.92;;
46607;SDS011;32330;51.936;7.184;2023-09-19T04:47:45;11.88;;;2.75;;
46607;SDS011;32330;51.936;7.184;2023-09-19T04:50:12;11.85;;;3.13;;
46607;SDS011;32330;51.936;7.184;2023-09-19T04:52:39;12.23;;;2.50;;
46607;SDS011;32330;51.936;7.184;2023-09-19T04:55:10;11.73;;;2.63;;
46607;SDS011;32330;51.936;7.184;2023-09-19T04:57:43;13.80;;;2.83;;
46607;SDS011;32330;51.936;7.184;2023-09-19T05:00:12;11.52;;;2.38;;
46607;SDS011;32330;51.936;7.184;2023-09-19T05:02:42;8.43;;;2.08;;
46607;SDS011;32330;51.936;7.184;2023-09-19T05:05:09;8.45;;;2.53;;
46607;SDS011;32330;51.936;7.184;2023-09-19T05:07:40;9.23;;;2.40;;
46607;SDS011;32330;51.936;7.184;2023-09-19T05:10:09;8.77;;;2.00;;
46607;SDS011;32330;51.936;7.184;2023-09-19T05:12:38;8.73;;;2.80;;
46607;SDS011;32330;51.936;7.184;2023-09-19T05:15:07;8.38;;;2.58;;
46607;SDS011;32330;51.936;7.184;2023-09-19T05:17:35;6.22;;;1.88;;
46607;SDS011;32330;51.936;7.184;2023-09-19T05:20:02;13.73;;;2.45;;
46607;SDS011;32330;51.936;7.184;2023-09-19T05:22:40;12.18;;;2.35;;
46607;SDS011;32330;51.936;7.184;2023-09-19T05:25:08;6.63;;;1.98;;
46607;SDS011;32330;51.936;7.184;2023-09-19T05:27:35;6.70;;;2.15;;
46607;SDS011;32330;51.936;7.184;2023-09-19T05:30:02;12.75;;;2.05;;
46607;SDS011;32330;51.936;7.184;2023-09-19T05:32:31;9.88;;;2.42;;
46607;SDS011;32330;51.936;7.184;2023-09-19T05:34:58;10.32;;;2.63;;
46607;SDS011;32330;51.936;7.184;2023-09-19T05:37:25;8.88;;;2.33;;
46607;SDS011;32330;51.936;7.184;2023-09-19T05:39:52;7.38;;;2.47;;
46607;SDS011;32330;51.936;7.184;2023-09-19T05:42:19;10.38;;;2.58;;
46607;SDS011;32330;51.936;7.184;2023-09-19T05:44:46;12.45;;;2.50;;
46607;SDS011;32330;51.936;7.184;2023-09-19T05:47:13;9.43;;;2.13;;
46607;SDS011;32330;51.936;7.184;2023-09-19T05:49:41;8.55;;;2.55;;
46607;SDS011;32330;51.936;7.184;2023-09-19T05:52:09;7.20;;;2.10;;
46607;SDS011;32330;51.936;7.184;2023-09-19T05:54:36;10.65;;;2.17;;
46607;SDS011;32330;51.936;7.184;2023-09-19T05:57:03;10.13;;;2.20;;
46607;SDS011;32330;51.936;7.184;2023-09-19T05:59:30;10.13;;;2.15;;
46607;SDS011;32330;51.936;7.184;2023-09-19T06:01:58;10.50;;;2.47;;
46607;SDS011;32330;51.936;7.184;2023-09-19T06:04:25;9.95;;;2.80;;
46607;SDS011;32330;51.936;7.184;2023-09-19T06:06:54;8.63;;;2.45;;
46607;SDS011;32330;51.936;7.184;2023-09-19T06:09:21;11.02;;;2.83;;
46607;SDS011;32330;51.936;7.184;2023-09-19T06:11:48;7.13;;;2.35;;
46607;SDS011;32330;51.936;7.184;2023-09-19T06:14:16;7.28;;;2.10;;
46607;SDS011;32330;51.936;7.184;2023-09-19T06:16:44;11.23;;;2.45;;
46607;SDS011;32330;51.936;7.184;2023-09-19T06:19:12;7.65;;;2.10;;
46607;SDS011;32330;51.936;7.184;2023-09-19T06:21:39;8.52;;;2.55;;
46607;SDS011;32330;51.936;7.184;2023-09-19T06:24:07;6.50;;;2.30;;
46607;SDS011;32330;51.936;7.184;2023-09-19T06:26:35;12.82;;;2.38;;
46607;SDS011;32330;51.936;7.184;2023-09-19T06:29:02;10.93;;;2.67;;
46607;SDS011;32330;51.936;7.184;2023-09-19T06:31:33;13.15;;;5.07;;
46607;SDS011;32330;51.936;7.184;2023-09-19T06:34:00;13.27;;;7.15;;
46607;SDS011;32330;51.936;7.184;2023-09-19T06:36:28;10.15;;;2.47;;
46607;SDS011;32330;51.936;7.184;2023-09-19T06:38:55;9.05;;;2.53;;
46607;SDS011;32330;51.936;7.184;2023-09-19T06:41:23;9.27;;;2.60;;
46607;SDS011;32330;51.936;7.184;2023-09-19T06:43:50;10.35;;;2.95;;
46607;SDS011;32330;51.936;7.184;2023-09-19T06:46:19;11.05;;;2.83;;
46607;SDS011;32330;51.936;7.184;2023-09-19T06:48:45;14.65;;;2.80;;
46607;SDS011;32330;51.936;7.184;2023-09-19T06:51:14;8.68;;;3.50;;
46607;SDS011;32330;51.936;7.184;2023-09-19T06:53:41;11.20;;;2.20;;
46607;SDS011;32330;51.936;7.184;2023-09-19T06:56:08;13.02;;;2.17;;
46607;SDS011;32330;51.936;7.184;2023-09-19T06:58:37;8.95;;;2.60;;
46607;SDS011;32330;51.936;7.184;2023-09-19T07:01:04;11.68;;;2.28;;
46607;SDS011;32330;51.936;7.184;2023-09-19T07:03:31;10.50;;;2.40;;
46607;SDS011;32330;51.936;7.184;2023-09-19T07:05:58;7.53;;;2.47;;
46607;SDS011;32330;51.936;7.184;2023-09-19T07:08:25;7.45;;;2.70;;
46607;SDS011;32330;51.936;7.184;2023-09-19T07:10:53;11.65;;;2.90;;
46607;SDS011;32330;51.936;7.184;2023-09-19T07:13:22;6.10;;;2.80;;
46607;SDS011;32330;51.936;7.184;2023-09-19T07:15:51;12.55;;;3.13;;
46607;SDS011;32330;51.936;7.184;2023-09-19T07:18:19;9.57;;;2.45;;
46607;SDS011;32330;51.936;7.184;2023-09-19T07:20:47;12.13;;;2.40;;
46607;SDS011;32330;51.936;7.184;2023-09-19T07:23:17;11.43;;;2.72;;
46607;SDS011;32330;51.936;7.184;2023-09-19T07:25:47;11.05;;;3.10;;
46607;SDS011;32330;51.936;7.184;2023-09-19T07:28:15;16.25;;;3.65;;
46607;SDS011;32330;51.936;7.184;2023-09-19T07:30:42;10.20;;;2.42;;
46607;SDS011;32330;51.936;7.184;2023-09-19T07:33:10;9.05;;;2.95;;
46607;SDS011;32330;51.936;7.184;2023-09-19T07:35:37;11.00;;;3.05;;
46607;SDS011;32330;51.936;7.184;2023-09-19T07:38:06;8.40;;;2.70;;
46607;SDS011;32330;51.936;7.184;2023-09-19T07:40:33;7.60;;;2.67;;
46607;SDS011;32330;51.936;7.184;2023-09-19T07:43:01;15.27;;;3.33;;
46607;SDS011;32330;51.936;7.184;2023-09-19T07:45:30;10.98;;;2.60;;
46607;SDS011;32330;51.936;7.184;2023-09-19T07:47:57;13.15;;;2.65;;
46607;SDS011;32330;51.936;7.184;2023-09-19T07:50:27;10.27;;;3.13;;
46607;SDS011;32330;51.936;7.184;2023-09-19T07:52:54;11.40;;;2.90;;
46607;SDS011;32330;51.936;7.184;2023-09-19T07:55:21;11.30;;;3.25;;
46607;SDS011;32330;51.936;7.184;2023-09-19T07:57:50;7.93;;;2.00;;
46607;SDS011;32330;51.936;7.184;2023-09-19T08:00:18;11.90;;;3.05;;
46607;SDS011;32330;51.936;7.184;2023-09-19T08:02:45;9.68;;;2.47;;
46607;SDS011;32330;51.936;7.184;2023-09-19T08:05:13;9.75;;;2.25;;
46607;SDS011;32330;51.936;7.184;2023-09-19T08:07:43;8.25;;;3.55;;
46607;SDS011;32330;51.936;7.184;2023-09-19T08:10:13;8.45;;;2.75;;
46607;SDS011;32330;51.936;7.184;2023-09-19T08:12:41;11.80;;;2.53;;
46607;SDS011;32330;51.936;7.184;2023-09-19T08:15:12;10.20;;;2.78;;
46607;SDS011;32330;51.936;7.184;2023-09-19T08:17:40;9.63;;;2.58;;
46607;SDS011;32330;51.936;7.184;2023-09-19T08:20:07;11.45;;;3.00;;
46607;SDS011;32330;51.936;7.184;2023-09-19T08:22:44;10.70;;;2.75;;
46607;SDS011;32330;51.936;7.184;2023-09-19T08:25:13;8.60;;;2.65;;
46607;SDS011;32330;51.936;7.184;2023-09-19T08:27:42;9.90;;;2.90;;
46607;SDS011;32330;51.936;7.184;2023-09-19T08:30:13;10.10;;;3.15;;
46607;SDS011;32330;51.936;7.184;2023-09-19T08:32:40;11.10;;;2.90;;
46607;SDS011;32330;51.936;7.184;2023-09-19T08:35:08;12.52;;;2.80;;
46607;SDS011;32330;51.936;7.184;2023-09-19T08:37:35;11.70;;;2.67;;
46607;SDS011;32330;51.936;7.184;2023-09-19T08:40:07;11.60;;;2.67;;
46607;SDS011;32330;51.936;7.184;2023-09-19T08:42:48;9.13;;;2.60;;
46607;SDS011;32330;51.936;7.184;2023-09-19T08:45:16;8.43;;;2.60;;
46607;SDS011;32330;51.936;7.184;2023-09-19T08:47:45;9.93;;;2.35;;
46607;SDS011;32330;51.936;7.184;2023-09-19T08:50:18;10.27;;;2.38;;
46607;SDS011;32330;51.936;7.184;2023-09-19T08:52:51;10.85;;;2.83;;
46607;SDS011;32330;51.936;7.184;2023-09-19T08:55:22;9.05;;;2.38;;
46607;SDS011;32330;51.936;7.184;2023-09-19T08:57:54;8.70;;;2.47;;
46607;SDS011;32330;51.936;7.184;2023-09-19T09:00:27;9.95;;;2.53;;
46607;SDS011;32330;51.936;7.184;2023-09-19T09:02:58;8.68;;;2.17;;
46607;SDS011;32330;51.936;7.184;2023-09-19T09:05:27;9.63;;;2.90;;
46607;SDS011;32330;51.936;7.184;2023-09-19T09:07:55;10.60;;;2.92;;
46607;SDS011;32330;51.936;7.184;2023-09-19T09:10:24;8.38;;;2.75;;
46607;SDS011;32330;51.936;7.184;2023-09-19T09:12:52;13.40;;;3.40;;
46607;SDS011;32330;51.936;7.184;2023-09-19T09:15:20;13.13;;;2.55;;
46607;SDS011;32330;51.936;7.184;2023-09-19T09:17:48;9.57;;;2.42;;
46607;SDS011;32330;51.936;7.184;2023-09-19T09:20:16;10.20;;;2.65;;
46607;SDS011;32330;51.936;7.184;2023-09-19T09:22:50;9.63;;;2.30;;
46607;SDS011;32330;51.936;7.184;2023-09-19T09:25:18;14.70;;;2.92;;
46607;SDS011;32330;51.936;7.184;2023-09-19T09:27:49;11.05;;;2.80;;
46607;SDS011;32330;51.936;7.184;2023-09-19T09:30:35;14.10;;;3.10;;
46607;SDS011;32330;51.936;7.184;2023-09-19T09:33:09;12.18;;;3.55;;
46607;SDS011;32330;51.936;7.184;2023-09-19T09:35:46;11.10;;;2.67;;
46607;SDS011;32330;51.936;7.184;2023-09-19T09:38:17;12.82;;;2.70;;
46607;SDS011;32330;51.936;7.184;2023-09-19T09:40:48;11.07;;;2.55;;
46607;SDS011;32330;51.936;7.184;2023-09-19T09:43:28;12.10;;;3.00;;
46607;SDS011;32330;51.936;7.184;2023-09-19T09:46:10;12.70;;;2.50;;
46607;SDS011;32330;51.936;7.184;2023-09-19T09:49:01;11.23;;;3.10;;
46607;SDS011;32330;51.936;7.184;2023-09-19T09:51:58;8.73;;;3.28;;
46607;SDS011;32330;51.936;7.184;2023-09-19T09:54:31;11.13;;;2.50;;
46607;SDS011;32330;51.936;7.184;2023-09-19T09:57:02;9.48;;;2.70;;
46607;SDS011;32330;51.936;7.184;2023-09-19T10:02:41;14.60;;;4.45;;
46607;SDS011;32330;51.936;7.184;2023-09-19T10:05:12;16.17;;;3.00;;
46607;SDS011;32330;51.936;7.184;2023-09-19T10:07:46;9.88;;;2.95;;
46607;SDS011;32330;51.936;7.184;2023-09-19T10:10:16;12.00;;;3.60;;
46607;SDS011;32330;51.936;7.184;2023-09-19T10:13:03;11.32;;;3.05;;
46607;SDS011;32330;51.936;7.184;2023-09-19T10:15:34;8.15;;;2.38;;
46607;SDS011;32330;51.936;7.184;2023-09-19T10:18:04;12.85;;;2.67;;
46607;SDS011;32330;51.936;7.184;2023-09-19T10:20:33;11.77;;;2.70;;
46607;SDS011;32330;51.936;7.184;2023-09-19T10:23:05;10.52;;;3.20;;
46607;SDS011;32330;51.936;7.184;2023-09-19T10:25:36;13.80;;;2.95;;
46607;SDS011;32330;51.936;7.184;2023-09-19T10:28:05;14.20;;;3.30;;
46607;SDS011;32330;51.936;7.184;2023-09-19T10:30:42;9.95;;;3.28;;
46607;SDS011;32330;51.936;7.184;2023-09-19T10:33:10;8.90;;;2.47;;
46607;SDS011;32330;51.936;7.184;2023-09-19T10:35:39;9.30;;;2.58;;
46607;SDS011;32330;51.936;7.184;2023-09-19T10:38:09;13.10;;;2.60;;
46607;SDS011;32330;51.936;7.184;2023-09-19T10:40:37;12.50;;;3.40;;
46607;SDS011;32330;51.936;7.184;2023-09-19T10:43:11;8.15;;;2.30;;
46607;SDS011;32330;51.936;7.184;2023-09-19T10:45:38;11.07;;;2.87;;
46607;SDS011;32330;51.936;7.184;2023-09-19T10:48:10;9.68;;;2.88;;
46607;SDS011;32330;51.936;7.184;2023-09-19T10:50:41;9.98;;;2.78;;
46607;SDS011;32330;51.936;7.184;2023-09-19T10:53:11;10.55;;;3.05;;
46607;SDS011;32330;51.936;7.184;2023-09-19T10:55:39;9.88;;;2.60;;
46607;SDS011;32330;51.936;7.184;2023-09-19T10:58:08;7.88;;;2.20;;
46607;SDS011;32330;51.936;7.184;2023-09-19T11:00:52;10.48;;;2.60;;
46607;SDS011;32330;51.936;7.184;2023-09-19T11:03:20;10.45;;;2.70;;
46607;SDS011;32330;51.936;7.184;2023-09-19T11:06:05;8.93;;;2.35;;
46607;SDS011;32330;51.936;7.184;2023-09-19T11:11:45;9.10;;;2.90;;
46607;SDS011;32330;51.936;7.184;2023-09-19T11:20:24;5.10;;;2.58;;
46607;SDS011;32330;51.936;7.184;2023-09-19T11:25:53;12.82;;;2.70;;
46607;SDS011;32330;51.936;7.184;2023-09-19T11:28:33;6.70;;;2.20;;
46607;SDS011;32330;51.936;7.184;2023-09-19T11:40:30;8.20;;;2.35;;
46607;SDS011;32330;51.936;7.184;2023-09-19T11:42:57;7.88;;;2.53;;
46607;SDS011;32330;51.936;7.184;2023-09-19T11:48:30;11.63;;;2.58;;
46607;SDS011;32330;51.936;7.184;2023-09-19T11:51:00;8.85;;;2.63;;
46607;SDS011;32330;51.936;7.184;2023-09-19T11:53:32;12.20;;;3.05;;
46607;SDS011;32330;51.936;7.184;2023-09-19T11:56:04;7.57;;;2.42;;
46607;SDS011;32330;51.936;7.184;2023-09-19T11:58:35;11.18;;;2.78;;
46607;SDS011;32330;51.936;7.184;2023-09-19T12:01:06;8.27;;;2.42;;
46607;SDS011;32330;51.936;7.184;2023-09-19T12:03:39;11.23;;;2.70;;
46607;SDS011;32330;51.936;7.184;2023-09-19T12:06:13;9.10;;;2.63;;
46607;SDS011;32330;51.936;7.184;2023-09-19T12:08:41;7.05;;;1.80;;
46607;SDS011;32330;51.936;7.184;2023-09-19T12:11:14;9.40;;;2.60;;
46607;SDS011;32330;51.936;7.184;2023-09-19T12:13:43;8.02;;;2.30;;
46607;SDS011;32330;51.936;7.184;2023-09-19T12:16:12;12.02;;;2.30;;
46607;SDS011;32330;51.936;7.184;2023-09-19T12:18:41;8.18;;;3.05;;
46607;SDS011;32330;51.936;7.184;2023-09-19T12:21:22;6.85;;;1.98;;
46607;SDS011;32330;51.936;7.184;2023-09-19T12:23:59;7.63;;;2.05;;
46607;SDS011;32330;51.936;7.184;2023-09-19T12:26:38;7.70;;;2.03;;
46607;SDS011;32330;51.936;7.184;2023-09-19T12:29:10;7.70;;;2.20;;
46607;SDS011;32330;51.936;7.184;2023-09-19T12:31:49;11.82;;;2.83;;
46607;SDS011;32330;51.936;7.184;2023-09-19T12:34:19;9.73;;;2.75;;
46607;SDS011;32330;51.936;7.184;2023-09-19T12:36:47;6.97;;;2.03;;
46607;SDS011;32330;51.936;7.184;2023-09-19T12:39:24;9.15;;;1.95;;
46607;SDS011;32330;51.936;7.184;2023-09-19T12:41:53;6.75;;;2.08;;
46607;SDS011;32330;51.936;7.184;2023-09-19T12:44:21;8.60;;;1.95;;
46607;SDS011;32330;51.936;7.184;2023-09-19T12:46:50;9.57;;;3.05;;
46607;SDS011;32330;51.936;7.184;2023-09-19T12:49:20;8.38;;;2.70;;
46607;SDS011;32330;51.936;7.184;2023-09-19T12:51:48;8.45;;;2.20;;
46607;SDS011;32330;51.936;7.184;2023-09-19T12:54:20;5.00;;;2.03;;
46607;SDS011;32330;51.936;7.184;2023-09-19T12:56:47;10.65;;;2.20;;
46607;SDS011;32330;51.936;7.184;2023-09-19T12:59:17;9.63;;;2.15;;
46607;SDS011;32330;51.936;7.184;2023-09-19T13:02:03;8.32;;;2.47;;
46607;SDS011;32330;51.936;7.184;2023-09-19T13:04:32;8.55;;;2.03;;
46607;SDS011;32330;51.936;7.184;2023-09-19T13:07:05;10.82;;;2.25;;
46607;SDS011;32330;51.936;7.184;2023-09-19T13:09:34;6.25;;;2.30;;
46607;SDS011;32330;51.936;7.184;2023-09-19T13:12:01;5.50;;;2.00;;
46607;SDS011;32330;51.936;7.184;2023-09-19T13:14:30;7.47;;;1.88;;
46607;SDS011;32330;51.936;7.184;2023-09-19T13:16:59;7.13;;;2.30;;
46607;SDS011;32330;51.936;7.184;2023-09-19T13:19:39;4.85;;;1.58;;
46607;SDS011;32330;51.936;7.184;2023-09-19T13:25:05;10.68;;;2.22;;
46607;SDS011;32330;51.936;7.184;2023-09-19T13:27:38;9.05;;;1.90;;
46607;SDS011;32330;51.936;7.184;2023-09-19T13:30:07;6.60;;;2.13;;
46607;SDS011;32330;51.936;7.184;2023-09-19T13:32:35;6.43;;;2.35;;
46607;SDS011;32330;51.936;7.184;2023-09-19T13:35:02;8.18;;;2.33;;
46607;SDS011;32330;51.936;7.184;2023-09-19T13:37:33;6.07;;;2.00;;
46607;SDS011;32330;51.936;7.184;2023-09-19T13:40:01;8.00;;;2.17;;
46607;SDS011;32330;51.936;7.184;2023-09-19T13:42:30;7.45;;;2.05;;
46607;SDS011;32330;51.936;7.184;2023-09-19T13:44:57;6.53;;;1.88;;
46607;SDS011;32330;51.936;7.184;2023-09-19T13:47:25;6.47;;;1.40;;
46607;SDS011;32330;51.936;7.184;2023-09-19T13:49:53;5.97;;;1.77;;
46607;SDS011;32330;51.936;7.184;2023-09-19T13:52:20;6.70;;;1.25;;
46607;SDS011;32330;51.936;7.184;2023-09-19T13:54:48;6.72;;;1.83;;
46607;SDS011;32330;51.936;7.184;2023-09-19T13:57:16;7.72;;;1.92;;
46607;SDS011;32330;51.936;7.184;2023-09-19T13:59:43;5.45;;;1.50;;
46607;SDS011;32330;51.936;7.184;2023-09-19T14:02:10;6.25;;;1.60;;
46607;SDS011;32330;51.936;7.184;2023-09-19T14:04:40;5.25;;;1.40;;
46607;SDS011;32330;51.936;7.184;2023-09-19T14:07:07;5.40;;;1.90;;
46607;SDS011;32330;51.936;7.184;2023-09-19T14:09:36;5.55;;;1.33;;
46607;SDS011;32330;51.936;7.184;2023-09-19T14:12:03;5.38;;;1.42;;
46607;SDS011;32330;51.936;7.184;2023-09-19T14:14:30;5.00;;;1.70;;
46607;SDS011;32330;51.936;7.184;2023-09-19T14:16:57;5.43;;;2.00;;
46607;SDS011;32330;51.936;7.184;2023-09-19T14:19:26;6.18;;;1.65;;
46607;SDS011;32330;51.936;7.184;2023-09-19T14:21:54;7.68;;;2.08;;
46607;SDS011;32330;51.936;7.184;2023-09-19T14:24:21;5.95;;;1.30;;
46607;SDS011;32330;51.936;7.184;2023-09-19T14:26:49;6.95;;;1.55;;
46607;SDS011;32330;51.936;7.184;2023-09-19T14:29:16;5.50;;;1.48;;
46607;SDS011;32330;51.936;7.184;2023-09-19T14:31:43;7.45;;;1.50;;
46607;SDS011;32330;51.936;7.184;2023-09-19T14:34:10;5.18;;;1.63;;
46607;SDS011;32330;51.936;7.184;2023-09-19T14:36:37;6.80;;;1.58;;
46607;SDS011;32330;51.936;7.184;2023-09-19T14:39:06;5.20;;;1.30;;
46607;SDS011;32330;51.936;7.184;2023-09-19T14:41:33;6.28;;;1.60;;
46607;SDS011;32330;51.936;7.184;2023-09-19T14:44:01;4.03;;;1.30;;
46607;SDS011;32330;51.936;7.184;2023-09-19T14:46:30;3.75;;;1.17;;
46607;SDS011;32330;51.936;7.184;2023-09-19T14:48:57;6.95;;;1.73;;
46607;SDS011;32330;51.936;7.184;2023-09-19T14:51:25;5.47;;;2.10;;
46607;SDS011;32330;51.936;7.184;2023-09-19T14:53:52;5.20;;;1.25;;
46607;SDS011;32330;51.936;7.184;2023-09-19T14:56:21;3.15;;;0.93;;
46607;SDS011;32330;51.936;7.184;2023-09-19T14:58:49;7.05;;;1.58;;
46607;SDS011;32330;51.936;7.184;2023-09-19T15:01:16;6.47;;;1.50;;
46607;SDS011;32330;51.936;7.184;2023-09-19T15:03:43;3.60;;;1.70;;
46607;SDS011;32330;51.936;7.184;2023-09-19T15:06:12;4.03;;;1.08;;
46607;SDS011;32330;51.936;7.184;2023-09-19T15:08:40;4.85;;;1.40;;
46607;SDS011;32330;51.936;7.184;2023-09-19T15:13:39;5.70;;;1.33;;
46607;SDS011;32330;51.936;7.184;2023-09-19T15:16:07;5.60;;;1.00;;
46607;SDS011;32330;51.936;7.184;2023-09-19T15:18:35;5.05;;;1.13;;
46607;SDS011;32330;51.936;7.184;2023-09-19T15:21:04;4.53;;;1.15;;
46607;SDS011;32330;51.936;7.184;2023-09-19T15:23:32;2.85;;;0.80;;
46607;SDS011;32330;51.936;7.184;2023-09-19T15:25:59;3.80;;;0.95;;
46607;SDS011;32330;51.936;7.184;2023-09-19T15:28:28;3.88;;;1.30;;
46607;SDS011;32330;51.936;7.184;2023-09-19T15:31:00;3.83;;;0.90;;
46607;SDS011;32330;51.936;7.184;2023-09-19T15:33:27;2.42;;;1.00;;
46607;SDS011;32330;51.936;7.184;2023-09-19T15:36:02;5.85;;;1.40;;
46607;SDS011;32330;51.936;7.184;2023-09-19T15:38:30;5.10;;;1.20;;
46607;SDS011;32330;51.936;7.184;2023-09-19T15:40:58;4.13;;;1.25;;
46607;SDS011;32330;51.936;7.184;2023-09-19T15:43:25;3.97;;;1.00;;
46607;SDS011;32330;51.936;7.184;2023-09-19T15:45:53;6.70;;;1.10;;
46607;SDS011;32330;51.936;7.184;2023-09-19T15:48:21;4.75;;;1.13;;
46607;SDS011;32330;51.936;7.184;2023-09-19T15:50:48;3.72;;;1.20;;
46607;SDS011;32330;51.936;7.184;2023-09-19T15:53:15;6.00;;;1.30;;
46607;SDS011;32330;51.936;7.184;2023-09-19T15:55:43;8.18;;;1.58;;
46607;SDS011;32330;51.936;7.184;2023-09-19T15:58:10;2.65;;;0.82;;
46607;SDS011;32330;51.936;7.184;2023-09-19T16:00:39;5.85;;;1.15;;
46607;SDS011;32330;51.936;7.184;2023-09-19T16:03:06;2.90;;;0.82;;
46607;SDS011;32330;51.936;7.184;2023-09-19T16:05:36;5.47;;;0.90;;
46607;SDS011;32330;51.936;7.184;2023-09-19T16:08:05;3.50;;;1.23;;
46607;SDS011;32330;51.936;7.184;2023-09-19T16:10:36;7.10;;;1.92;;
46607;SDS011;32330;51.936;7.184;2023-09-19T16:13:03;2.40;;;1.00;;
46607;SDS011;32330;51.936;7.184;2023-09-19T16:15:30;3.55;;;1.33;;
46607;SDS011;32330;51.936;7.184;2023-09-19T16:17:57;6.60;;;1.55;;
46607;SDS011;32330;51.936;7.184;2023-09-19T16:20:47;5.43;;;1.80;;
46607;SDS011;32330;51.936;7.184;2023-09-19T16:23:18;5.37;;;2.10;;
46607;SDS011;32330;51.936;7.184;2023-09-19T16:25:46;3.70;;;1.20;;
46607;SDS011;32330;51.936;7.184;2023-09-19T16:28:13;3.20;;;1.40;;
46607;SDS011;32330;51.936;7.184;2023-09-19T16:30:40;4.43;;;1.00;;
46607;SDS011;32330;51.936;7.184;2023-09-19T16:33:07;3.05;;;0.95;;
46607;SDS011;32330;51.936;7.184;2023-09-19T16:35:38;4.18;;;0.82;;
46607;SDS011;32330;51.936;7.184;2023-09-19T16:38:14;5.78;;;1.00;;
46607;SDS011;32330;51.936;7.184;2023-09-19T16:40:51;5.60;;;1.35;;
46607;SDS011;32330;51.936;7.184;2023-09-19T16:43:56;6.38;;;1.25;;
46607;SDS011;32330;51.936;7.184;2023-09-19T16:46:24;2.67;;;1.05;;
46607;SDS011;32330;51.936;7.184;2023-09-19T16:48:52;3.40;;;0.80;;
46607;SDS011;32330;51.936;7.184;2023-09-19T16:51:19;5.10;;;1.10;;
46607;SDS011;32330;51.936;7.184;2023-09-19T16:53:49;5.43;;;1.20;;
46607;SDS011;32330;51.936;7.184;2023-09-19T16:56:18;6.22;;;1.20;;
46607;SDS011;32330;51.936;7.184;2023-09-19T16:58:46;3.15;;;1.10;;
46607;SDS011;32330;51.936;7.184;2023-09-19T17:04:22;3.28;;;1.08;;
46607;SDS011;32330;51.936;7.184;2023-09-19T17:06:49;4.20;;;1.30;;
46607;SDS011;32330;51.936;7.184;2023-09-19T17:09:17;4.57;;;1.33;;
46607;SDS011;32330;51.936;7.184;2023-09-19T17:11:44;3.50;;;0.98;;
46607;SDS011;32330;51.936;7.184;2023-09-19T17:14:12;5.32;;;1.15;;
46607;SDS011;32330;51.936;7.184;2023-09-19T17:16:39;4.90;;;1.30;;
46607;SDS011;32330;51.936;7.184;2023-09-19T17:19:07;2.53;;;0.93;;
46607;SDS011;32330;51.936;7.184;2023-09-19T17:21:34;3.67;;;1.15;;
46607;SDS011;32330;51.936;7.184;2023-09-19T17:24:02;3.20;;;1.02;;
46607;SDS011;32330;51.936;7.184;2023-09-19T17:26:34;6.13;;;1.08;;
46607;SDS011;32330;51.936;7.184;2023-09-19T17:29:01;3.95;;;1.10;;
46607;SDS011;32330;51.936;7.184;2023-09-19T17:31:28;4.80;;;1.00;;
46607;SDS011;32330;51.936;7.184;2023-09-19T17:33:55;3.50;;;0.82;;
46607;SDS011;32330;51.936;7.184;2023-09-19T17:36:23;4.90;;;1.42;;
46607;SDS011;32330;51.936;7.184;2023-09-19T17:38:52;4.10;;;0.90;;
46607;SDS011;32330;51.936;7.184;2023-09-19T17:41:20;3.25;;;1.20;;
46607;SDS011;32330;51.936;7.184;2023-09-19T17:43:52;4.20;;;1.10;;
46607;SDS011;32330;51.936;7.184;2023-09-19T17:46:20;3.35;;;0.95;;
46607;SDS011;32330;51.936;7.184;2023-09-19T17:48:48;2.65;;;0.98;;
46607;SDS011;32330;51.936;7.184;2023-09-19T17:51:18;3.90;;;0.80;;
46607;SDS011;32330;51.936;7.184;2023-09-19T17:53:45;3.28;;;1.17;;
46607;SDS011;32330;51.936;7.184;2023-09-19T17:56:13;3.60;;;1.00;;
46607;SDS011;32330;51.936;7.184;2023-09-19T17:58:42;6.43;;;1.13;;
46607;SDS011;32330;51.936;7.184;2023-09-19T18:01:13;4.15;;;1.25;;
46607;SDS011;32330;51.936;7.184;2023-09-19T18:03:41;3.78;;;0.98;;
46607;SDS011;32330;51.936;7.184;2023-09-19T18:06:08;2.88;;;1.15;;
46607;SDS011;32330;51.936;7.184;2023-09-19T18:08:36;4.25;;;1.27;;
46607;SDS011;32330;51.936;7.184;2023-09-19T18:11:04;4.70;;;1.00;;
46607;SDS011;32330;51.936;7.184;2023-09-19T18:13:39;4.80;;;1.50;;
46607;SDS011;32330;51.936;7.184;2023-09-19T18:16:06;5.85;;;1.27;;
46607;SDS011;32330;51.936;7.184;2023-09-19T18:18:35;4.05;;;1.50;;
46607;SDS011;32330;51.936;7.184;2023-09-19T18:21:03;4.28;;;1.83;;
46607;SDS011;32330;51.936;7.184;2023-09-19T18:23:31;6.25;;;2.20;;
46607;SDS011;32330;51.936;7.184;2023-09-19T18:25:59;5.00;;;1.50;;
46607;SDS011;32330;51.936;7.184;2023-09-19T18:28:27;4.32;;;1.40;;
46607;SDS011;32330;51.936;7.184;2023-09-19T18:30:55;4.40;;;1.73;;
46607;SDS011;32330;51.936;7.184;2023-09-19T18:33:24;5.03;;;3.15;;
46607;SDS011;32330;51.936;7.184;2023-09-19T18:35:53;6.88;;;1.70;;
46607;SDS011;32330;51.936;7.184;2023-09-19T18:38:28;4.70;;;1.70;;
46607;SDS011;32330;51.936;7.184;2023-09-19T18:40:55;4.70;;;2.08;;
46607;SDS011;32330;51.936;7.184;2023-09-19T18:43:24;9.65;;;2.55;;
46607;SDS011;32330;51.936;7.184;2023-09-19T18:45:57;5.50;;;2.05;;
46607;SDS011;32330;51.936;7.184;2023-09-19T18:48:25;6.20;;;1.83;;
46607;SDS011;32330;51.936;7.184;2023-09-19T18:50:53;5.53;;;1.85;;
46607;SDS011;32330;51.936;7.184;2023-09-19T18:53:20;2.80;;;1.48;;
46607;SDS011;32330;51.936;7.184;2023-09-19T18:55:50;6.22;;;1.83;;
46607;SDS011;32330;51.936;7.184;2023-09-19T18:58:29;4.88;;;1.73;;
46607;SDS011;32330;51.936;7.184;2023-09-19T19:00:59;2.95;;;1.10;;
46607;SDS011;32330;51.936;7.184;2023-09-19T19:03:28;3.72;;;1.38;;
46607;SDS011;32330;51.936;7.184;2023-09-19T19:05:58;4.38;;;1.50;;
46607;SDS011;32330;51.936;7.184;2023-09-19T19:08:30;4.20;;;1.58;;
46607;SDS011;32330;51.936;7.184;2023-09-19T19:10:57;4.93;;;1.80;;
46607;SDS011;32330;51.936;7.184;2023-09-19T19:13:25;7.45;;;1.50;;
46607;SDS011;32330;51.936;7.184;2023-09-19T19:15:56;4.30;;;1.38;;
46607;SDS011;32330;51.936;7.184;2023-09-19T19:18:24;3.35;;;1.20;;
46607;SDS011;32330;51.936;7.184;2023-09-19T19:20:56;4.70;;;1.45;;